createdAt,value
2022-09-12T00:01:11.653Z,93.38
2022-09-12T00:03:40.092Z,93.43
2022-09-12T00:06:21.851Z,93.13
2022-09-12T00:08:50.222Z,93.16
2022-09-12T00:11:17.681Z,92.79
2022-09-12T00:13:44.432Z,93.21
2022-09-12T00:16:21.171Z,93.26
2022-09-12T00:18:48.792Z,93.23
2022-09-12T00:21:17.661Z,93.42
2022-09-12T00:23:45.649Z,93.58
2022-09-12T00:26:12.889Z,93.39
2022-09-12T00:28:41.378Z,93.51
2022-09-12T00:31:13.852Z,93.25
2022-09-12T00:33:40.868Z,93.20
2022-09-12T00:36:10.406Z,93.46
2022-09-12T00:38:38.948Z,93.35
2022-09-12T00:41:06.333Z,93.38
2022-09-12T00:43:37.282Z,93.25
2022-09-12T00:46:13.224Z,93.16
2022-09-12T00:48:46.866Z,93.05
2022-09-12T00:51:14.261Z,93.06
2022-09-12T00:53:44.540Z,92.79
2022-09-12T00:56:17.411Z,92.33
2022-09-12T00:59:17.009Z,92.59
2022-09-12T01:01:47.010Z,92.59
2022-09-12T01:04:18.284Z,92.72
2022-09-12T01:06:46.630Z,92.87
2022-09-12T01:09:17.497Z,93.23
2022-09-12T01:11:47.248Z,93.15
2022-09-12T01:14:15.729Z,93.13
2022-09-12T01:16:43.436Z,93.15
2022-09-12T01:19:32.243Z,93.08
2022-09-12T01:22:31.297Z,92.97
2022-09-12T01:25:16.131Z,93.04
2022-09-12T01:28:09.627Z,93.02
2022-09-12T01:31:04.333Z,92.87
2022-09-12T01:33:44.800Z,92.88
2022-09-12T01:36:34.732Z,92.82
2022-09-12T01:39:09.156Z,92.78
2022-09-12T01:42:35.066Z,92.93
2022-09-12T01:45:14.158Z,92.71
2022-09-12T01:47:45.610Z,92.87
2022-09-12T01:50:22.997Z,92.91
2022-09-12T01:52:54.678Z,92.93
2022-09-12T01:55:30.648Z,93.05
2022-09-12T01:58:06.366Z,93.12
2022-09-12T02:00:39.727Z,93.01
2022-09-12T02:03:15.216Z,93.04
2022-09-12T02:05:50.554Z,93.18
2022-09-12T02:08:31.325Z,92.94
2022-09-12T02:11:12.783Z,93.36
2022-09-12T02:13:47.692Z,93.44
2022-09-12T02:16:40.567Z,93.91
2022-09-12T02:19:18.819Z,94.60
2022-09-12T02:22:27.485Z,95.08
2022-09-12T02:24:59.085Z,95.50
2022-09-12T02:27:49.655Z,95.92
2022-09-12T02:30:19.826Z,96.28
2022-09-12T02:32:55.714Z,96.60
2022-09-12T02:35:25.248Z,96.80
2022-09-12T02:38:02.512Z,96.93
2022-09-12T02:40:30.789Z,96.98
2022-09-12T02:42:57.882Z,96.69
2022-09-12T02:45:24.904Z,96.25
2022-09-12T02:48:08.479Z,95.39
2022-09-12T02:50:35.731Z,94.82
2022-09-12T02:53:05.295Z,94.31
2022-09-12T02:55:34.103Z,94.27
2022-09-12T02:58:08.252Z,94.32
2022-09-12T03:00:45.228Z,94.27
2022-09-12T03:03:48.770Z,94.40
2022-09-12T03:06:31.089Z,94.45
2022-09-12T03:09:08.068Z,94.73
2022-09-12T03:11:50.985Z,94.70
2022-09-12T03:14:44.008Z,94.74
2022-09-12T03:17:27.457Z,94.10
2022-09-12T03:19:56.869Z,94.42
2022-09-12T03:22:35.807Z,94.76
2022-09-12T03:25:14.455Z,94.79
2022-09-12T03:27:57.123Z,94.97
2022-09-12T03:30:23.745Z,94.88
2022-09-12T03:32:53.211Z,94.57
2022-09-12T03:35:23.382Z,93.99
2022-09-12T03:37:51.153Z,93.97
2022-09-12T03:40:18.020Z,94.04
2022-09-12T03:42:44.636Z,94.07
2022-09-12T03:45:12.101Z,94.24
2022-09-12T03:47:39.591Z,94.63
2022-09-12T03:50:06.952Z,94.65
2022-09-12T03:52:33.757Z,94.72
2022-09-12T03:55:00.425Z,94.92
2022-09-12T03:57:27.165Z,95.52
2022-09-12T03:59:54.009Z,95.54
2022-09-12T04:02:21.364Z,95.64
2022-09-12T04:04:48.822Z,95.59
2022-09-12T04:07:16.641Z,95.81
2022-09-12T04:09:45.237Z,95.89
2022-09-12T04:12:12.696Z,95.94
2022-09-12T04:14:39.528Z,95.69
2022-09-12T04:17:07.331Z,95.63
2022-09-12T04:19:34.344Z,95.92
2022-09-12T04:22:01.021Z,95.91
2022-09-12T04:24:28.041Z,95.84
2022-09-12T04:26:55.054Z,95.64
2022-09-12T04:29:22.141Z,95.04
2022-09-12T04:31:49.134Z,94.88
2022-09-12T04:34:15.636Z,94.78
2022-09-12T04:36:42.750Z,94.40
2022-09-12T04:39:10.646Z,93.78
2022-09-12T04:41:39.449Z,92.96
2022-09-12T04:44:08.989Z,91.86
2022-09-12T04:46:41.496Z,91.97
2022-09-12T04:49:08.562Z,92.67
2022-09-12T04:51:39.459Z,93.33
2022-09-12T04:54:17.855Z,93.69
2022-09-12T04:56:46.901Z,94.28
2022-09-12T04:59:15.797Z,94.68
2022-09-12T05:40:23.435Z,87.74
2022-09-12T05:42:50.230Z,87.31
2022-09-12T05:45:30.358Z,86.85
2022-09-12T05:48:06.229Z,86.83
2022-09-12T05:50:33.783Z,86.47
2022-09-12T05:53:00.497Z,86.83
2022-09-12T05:55:33.229Z,87.91
2022-09-12T05:58:00.155Z,88.38
2022-09-12T06:00:33.438Z,88.36
2022-09-12T06:03:02.199Z,88.19
2022-09-12T06:22:21.766Z,88.37
2022-09-12T06:40:51.202Z,90.38
2022-09-12T07:45:24.443Z,84.72
2022-09-12T07:47:55.332Z,84.45
2022-09-12T07:53:47.655Z,82.63
2022-09-12T07:56:16.343Z,83.09
2022-09-12T07:58:47.834Z,82.81
2022-09-12T08:01:25.740Z,81.97
2022-09-12T08:03:59.923Z,80.57
2022-09-12T08:06:33.856Z,79.41
2022-09-12T08:09:10.830Z,77.97
2022-09-12T08:11:42.355Z,78.36
2022-09-12T08:14:12.059Z,77.40
2022-09-12T08:17:00.426Z,76.32
2022-09-12T08:19:48.591Z,72.44
2022-09-12T08:22:37.269Z,69.45
2022-09-12T08:25:09.000Z,66.05
2022-09-12T08:27:40.977Z,65.45
2022-09-12T08:30:20.858Z,63.14
2022-09-12T08:32:53.884Z,60.01
2022-09-12T08:35:27.192Z,58.43
2022-09-12T08:38:05.207Z,57.82
2022-09-12T08:40:43.906Z,52.91
2022-09-12T08:43:36.269Z,55.36
2022-09-12T08:46:17.174Z,55.47
2022-09-12T08:49:10.450Z,53.70
2022-09-12T08:51:38.560Z,51.92
2022-09-12T08:54:33.148Z,51.01
2022-09-12T08:57:21.776Z,49.78
2022-09-12T09:00:02.215Z,49.94
2022-09-12T09:03:02.639Z,49.80
2022-09-12T09:06:05.388Z,52.87
2022-09-12T09:08:57.103Z,52.89
2022-09-12T09:11:55.166Z,50.83
2022-09-12T09:14:50.376Z,54.10
2022-09-12T09:17:31.887Z,55.49
2022-09-12T09:20:24.970Z,56.02
2022-09-12T09:23:07.593Z,55.15
2022-09-12T09:26:01.307Z,52.06
2022-09-12T09:28:54.529Z,50.91
2022-09-12T09:31:36.762Z,50.18
2022-09-12T09:34:22.258Z,50.62
2022-09-12T09:37:20.995Z,48.92
2022-09-12T09:40:23.135Z,47.45
2022-09-12T09:43:09.386Z,48.13
2022-09-12T09:45:48.081Z,45.99
2022-09-12T09:51:46.422Z,42.00
2022-09-12T09:54:33.392Z,44.81
2022-09-12T09:57:55.747Z,45.39
2022-09-12T10:03:41.668Z,41.20
2022-09-12T10:06:35.445Z,36.79
2022-09-12T10:11:13.779Z,42.84
2022-09-12T10:15:32.971Z,50.40
2022-09-12T10:18:03.296Z,52.09
2022-09-12T10:20:40.041Z,53.83
2022-09-12T10:23:19.021Z,55.79
2022-09-12T10:26:06.575Z,54.42
2022-09-12T10:28:46.939Z,56.84
2022-09-12T10:31:33.155Z,56.26
2022-09-12T10:34:05.983Z,55.31
2022-09-12T10:36:40.359Z,53.91
2022-09-12T10:39:14.579Z,54.11
2022-09-12T10:41:49.235Z,53.42
2022-09-12T10:44:33.912Z,52.13
2022-09-12T10:50:33.179Z,53.38
2022-09-12T10:53:34.473Z,52.08
2022-09-12T10:56:21.634Z,51.20
2022-09-12T10:59:35.866Z,52.18
2022-09-12T11:02:41.433Z,51.81
2022-09-12T11:05:43.364Z,51.94
2022-09-12T11:08:44.863Z,52.22
2022-09-12T11:15:06.751Z,48.18
2022-09-12T11:17:58.617Z,49.39
2022-09-12T11:21:29.713Z,49.38
2022-09-12T11:24:26.504Z,48.31
2022-09-12T11:27:39.363Z,50.11
2022-09-12T11:30:20.285Z,49.68
2022-09-12T11:32:58.597Z,48.51
2022-09-12T11:35:32.535Z,48.19
2022-09-12T11:38:37.764Z,47.17
2022-09-12T11:41:44.177Z,48.16
2022-09-12T11:44:19.647Z,46.88
2022-09-12T11:47:17.334Z,43.54
2022-09-12T11:49:57.570Z,43.72
2022-09-12T11:52:31.290Z,44.49
2022-09-12T11:58:00.895Z,44.70
2022-09-12T12:00:52.839Z,44.08
2022-09-12T12:03:57.909Z,42.37
2022-09-12T12:06:57.681Z,43.37
2022-09-12T12:09:55.291Z,43.52
2022-09-12T12:12:43.096Z,40.50
2022-09-12T12:15:24.440Z,41.02
2022-09-12T12:18:21.030Z,43.21
2022-09-12T12:20:56.880Z,43.82
2022-09-12T12:23:37.018Z,43.70
2022-09-12T12:26:15.999Z,42.57
2022-09-12T12:28:44.175Z,41.75
2022-09-12T12:31:12.698Z,41.96
2022-09-12T12:33:40.635Z,41.97
2022-09-12T12:36:31.717Z,42.22
2022-09-12T12:39:03.491Z,41.42
2022-09-12T12:41:36.425Z,41.40
2022-09-12T12:44:41.746Z,41.74
2022-09-12T12:47:24.116Z,42.87
2022-09-12T12:50:03.680Z,44.02
2022-09-12T12:52:35.450Z,44.15
2022-09-12T12:55:05.064Z,44.00
2022-09-12T12:57:48.177Z,44.14
2022-09-12T13:00:22.962Z,43.77
2022-09-12T13:03:09.715Z,43.93
2022-09-12T13:05:48.375Z,43.33
2022-09-12T13:08:25.216Z,43.03
2022-09-12T13:11:17.080Z,42.24
2022-09-12T13:13:53.137Z,41.34
2022-09-12T13:16:59.263Z,42.05
2022-09-12T13:19:35.574Z,43.90
2022-09-12T13:22:11.166Z,43.72
2022-09-12T13:24:49.775Z,42.80
2022-09-12T13:27:23.624Z,42.21
2022-09-12T13:30:05.801Z,41.72
2022-09-12T13:32:38.284Z,42.25
2022-09-12T13:35:24.878Z,44.20
2022-09-12T13:38:25.703Z,44.17
2022-09-12T13:41:01.232Z,44.20
2022-09-12T13:43:44.341Z,43.34
2022-09-12T13:49:06.976Z,44.37
2022-09-12T13:51:42.523Z,43.99
2022-09-12T13:54:24.591Z,43.66
2022-09-12T13:56:57.291Z,42.76
2022-09-12T13:59:28.144Z,42.15
2022-09-12T14:01:59.124Z,42.48
2022-09-12T14:04:50.176Z,42.34
2022-09-12T14:07:31.753Z,43.30
2022-09-12T14:10:01.992Z,43.85
2022-09-12T14:12:46.207Z,44.24
2022-09-12T14:15:41.520Z,42.58
2022-09-12T14:18:32.419Z,42.35
2022-09-12T14:21:12.744Z,42.41
2022-09-12T14:23:51.449Z,42.16
2022-09-12T14:26:24.925Z,41.73
2022-09-12T14:28:56.605Z,41.39
2022-09-12T14:31:35.601Z,41.57
2022-09-12T14:34:21.330Z,40.47
2022-09-12T14:36:52.995Z,41.29
2022-09-12T14:39:43.355Z,41.74
2022-09-12T14:42:22.258Z,41.56
2022-09-12T14:45:23.712Z,41.76
2022-09-12T14:47:59.388Z,43.47
2022-09-12T14:50:35.598Z,44.08
2022-09-12T14:56:20.577Z,43.59
2022-09-12T15:01:47.436Z,42.43
2022-09-12T15:04:53.102Z,42.10
2022-09-12T15:07:52.903Z,43.23
2022-09-12T15:10:32.739Z,43.96
2022-09-12T15:13:10.640Z,42.99
2022-09-12T15:15:43.278Z,42.23
2022-09-12T15:18:21.366Z,41.86
2022-09-12T15:24:18.814Z,42.65
2022-09-12T15:29:58.467Z,43.06
2022-09-12T16:14:38.293Z,44.73
2022-09-12T16:28:27.012Z,45.26
2022-09-12T16:36:27.603Z,47.89
2022-09-12T16:39:05.335Z,48.73
2022-09-12T16:44:20.909Z,48.80
2022-09-12T16:46:49.968Z,49.45
2022-09-12T16:49:20.980Z,48.92
2022-09-12T16:51:55.714Z,49.67
2022-09-12T16:54:23.889Z,50.16
2022-09-12T17:02:38.931Z,51.57
2022-09-12T17:07:54.909Z,52.02
2022-09-12T17:10:32.175Z,52.87
2022-09-12T17:18:45.154Z,54.82
2022-09-12T17:21:19.004Z,55.12
2022-09-12T17:23:59.321Z,55.33
2022-09-12T17:54:43.549Z,60.22
2022-09-12T17:57:13.010Z,60.54
2022-09-12T17:59:50.827Z,60.78
2022-09-12T18:02:21.770Z,60.47
2022-09-12T18:04:50.588Z,60.92
2022-09-12T18:07:24.659Z,60.62
2022-09-12T18:10:03.188Z,60.41
2022-09-12T18:12:49.264Z,60.55
2022-09-12T18:20:51.831Z,61.26
2022-09-12T18:26:14.805Z,61.79
2022-09-12T18:28:48.961Z,62.32
2022-09-12T18:31:19.000Z,62.78
2022-09-12T18:39:27.688Z,63.38
2022-09-12T18:41:58.922Z,63.57
2022-09-12T18:49:58.412Z,65.24
2022-09-12T19:11:55.027Z,66.99
2022-09-12T19:22:39.607Z,67.88
2022-09-12T19:27:59.581Z,68.95
2022-09-12T19:30:51.425Z,69.66
2022-09-12T19:33:30.246Z,69.64
2022-09-12T19:36:10.678Z,70.20
2022-09-12T19:38:52.190Z,70.30
2022-09-12T19:41:23.446Z,70.72
2022-09-12T19:43:57.027Z,70.68
2022-09-12T19:46:28.581Z,71.07
2022-09-12T19:51:41.893Z,71.39
2022-09-12T19:54:13.708Z,72.25
2022-09-12T19:57:04.129Z,72.61
2022-09-12T19:59:33.361Z,72.99
2022-09-12T22:15:40.129Z,81.09
2022-09-12T22:40:51.892Z,82.55
2022-09-12T22:43:19.817Z,82.45
2022-09-12T22:45:50.256Z,82.50
2022-09-12T22:48:20.494Z,82.81
2022-09-12T22:53:31.411Z,82.64
2022-09-12T23:07:04.294Z,83.25
2022-09-12T23:43:06.061Z,84.23
